Overview Statistics Trail Chart Weather Telemetry Raw packets
 

This is the latest recevied weather packets stored in our database for station/object OE3CJB-13. If no packets are shown the sender has not sent any weather packets the latest 10 day(s).

<< 22 23 24 25 26 27 28 >>
Time Temp. Humidity Pressure Rain* Wind** Luminosity Snow
1788184867 29.44° C 27% 1187.1 hPa 0 mm - - -
1788183932 28.89° C 30% 1187.8 hPa 0 mm - - -
1788183068 28.89° C 32% 1187.9 hPa 0 mm - - -
1788182156 27.78° C 34% 1187.3 hPa 0 mm - - -
1788181246 26.67° C 43% 1186.5 hPa 0 mm - - -
1788180332 25.56° C 47% 1187.5 hPa 0 mm - - -
1788179467 25.56° C 48% 1186.9 hPa 0 mm - - -
1788178556 24.44° C 50% 1185.4 hPa 0 mm - - -
1788177647 23.89° C 51% 1186.2 hPa 0 mm - - -
1788176766 23.89° C 52% 1185.5 hPa 0 mm - - -
1788175873 23.89° C 52% 1185.5 hPa 0 mm - - -
1788174956 23.89° C 53% 1186.3 hPa 0 mm - - -
1788174062 23.89° C 54% 1185.6 hPa 0 mm - - -
1788173166 23.89° C 55% 1186.3 hPa 0 mm - - -
1788172219 23.33° C 57% 1185.5 hPa 0 mm - - -
1788171356 22.78° C 58% 1185.7 hPa 0 mm - - -
1788170446 22.78° C 59% 1185.8 hPa 0 mm - - -
1788169531 22.78° C 59% 1185.1 hPa 0 mm - - -
1788168620 23.33° C 57% 1185.1 hPa 0 mm - - -
1788167756 23.33° C 56% 1184.1 hPa 0 mm - - -
1788166846 23.89° C 58% 1183.9 hPa 0 mm - - -
1788165932 23.33° C 60% 1183.2 hPa 0 mm - - -
1788165020 23.33° C 61% 1183.2 hPa 0 mm - - -
1788164165 22.78° C 62% 1182.4 hPa 0 mm - - -
1788163246 22.22° C 65% 1181.4 hPa 0 mm - - -

* Rain latest hour (hover to see other rain measurements)
** Current wind speed in m/s (hover to see current wind gust speed)